Time;durP1;ratioP1;P1;durP2;ratioP2;P2;SDS_P1;SDS_P2;PMS_P1;PMS_P2;Temp;Humidity;BMP_temperature;BMP_pressure;BME280_temperature;BME280_humidity;BME280_pressure;Samples;Min_cycle;Max_cycle;Signal;HPM_P1;HPM_P2
2023/10/03 00:00:24;;;;;;;18.83;10.38;;;17.70;99.90;;;;;;4981648;28;20245;-82
2023/10/03 00:02:54;;;;;;;20.92;10.27;;;17.70;99.90;;;;;;4967115;28;20396;-82
2023/10/03 00:05:22;;;;;;;18.98;10.02;;;17.70;99.90;;;;;;4981510;28;20054;-82
2023/10/03 00:07:51;;;;;;;18.65;10.35;;;17.70;99.90;;;;;;4949177;29;20497;-82
2023/10/03 00:10:18;;;;;;;19.63;9.75;;;17.70;99.90;;;;;;4949654;29;20420;-82
2023/10/03 00:12:48;;;;;;;21.98;11.07;;;17.70;99.90;;;;;;4981318;28;20074;-82
2023/10/03 00:15:16;;;;;;;19.17;10.65;;;17.70;99.90;;;;;;4967238;28;20097;-82
2023/10/03 00:17:42;;;;;;;21.92;10.27;;;17.70;99.90;;;;;;4965420;28;20469;-82
2023/10/03 00:20:11;;;;;;;23.08;10.90;;;17.70;99.90;;;;;;4998945;28;20039;-82
2023/10/03 00:22:38;;;;;;;23.92;10.75;;;17.70;99.90;;;;;;4997028;28;20046;-82
2023/10/03 00:25:07;;;;;;;20.95;11.02;;;17.70;99.90;;;;;;4949204;29;20090;-82
2023/10/03 00:27:35;;;;;;;20.75;10.80;;;17.70;99.90;;;;;;4950625;28;20097;-82
2023/10/03 00:30:02;;;;;;;20.23;10.50;;;17.60;99.90;;;;;;4976611;28;20473;-82
2023/10/03 00:32:30;;;;;;;21.77;10.35;;;17.60;99.90;;;;;;4961481;28;20055;-82
2023/10/03 00:34:56;;;;;;;19.27;10.18;;;17.60;99.90;;;;;;4962304;28;20494;-81
2023/10/03 00:37:23;;;;;;;21.40;10.82;;;17.60;99.90;;;;;;4930255;29;20158;-82
2023/10/03 00:39:49;;;;;;;20.98;11.13;;;17.60;99.90;;;;;;4946476;29;20094;-82
2023/10/03 00:42:15;;;;;;;23.02;11.05;;;17.60;99.90;;;;;;4962095;28;20052;-82
2023/10/03 00:44:41;;;;;;;21.40;11.10;;;17.60;99.90;;;;;;4963798;28;20048;-82
2023/10/03 00:47:07;;;;;;;19.83;11.38;;;17.50;99.90;;;;;;4931089;29;20490;-83
2023/10/03 00:49:36;;;;;;;19.67;10.82;;;17.60;99.90;;;;;;4928031;29;20518;-82
2023/10/03 00:52:05;;;;;;;21.30;11.38;;;17.50;99.90;;;;;;4962013;28;20059;-82
2023/10/03 00:54:32;;;;;;;19.77;10.90;;;17.50;99.90;;;;;;4914110;29;20122;-82
2023/10/03 00:56:58;;;;;;;18.67;10.52;;;17.50;99.90;;;;;;4962491;28;20044;-82
2023/10/03 00:59:24;;;;;;;20.92;10.50;;;17.50;99.90;;;;;;4961113;28;20062;-82
2023/10/03 01:01:50;;;;;;;22.63;11.25;;;17.50;99.90;;;;;;4958214;28;20036;-82
2023/10/03 01:04:19;;;;;;;20.15;10.43;;;17.40;99.90;;;;;;4960120;28;20044;-82
2023/10/03 01:06:49;;;;;;;20.58;11.23;;;17.40;99.90;;;;;;4960832;28;20048;-82
2023/10/03 01:09:24;;;;;;;21.15;10.98;;;17.40;99.90;;;;;;4961509;28;20158;-82
2023/10/03 01:11:51;;;;;;;20.83;10.95;;;17.40;99.90;;;;;;4959702;28;20128;-82
2023/10/03 01:14:18;;;;;;;21.73;11.35;;;17.40;99.90;;;;;;4946373;29;20047;-82
2023/10/03 01:16:45;;;;;;;19.95;10.48;;;17.40;99.90;;;;;;4962505;28;20122;-82
2023/10/03 01:19:29;;;;;;;20.17;10.13;;;17.40;99.90;;;;;;4960942;28;20261;-82
2023/10/03 01:21:56;;;;;;;20.23;10.48;;;17.40;99.90;;;;;;4946184;29;20038;-82
2023/10/03 01:24:24;;;;;;;20.85;10.73;;;17.40;99.90;;;;;;4946021;29;20147;-82
2023/10/03 01:26:53;;;;;;;20.67;11.15;;;17.40;99.90;;;;;;4962267;28;20294;-81
2023/10/03 01:29:20;;;;;;;19.70;10.70;;;17.40;99.90;;;;;;4929362;29;20039;-81
2023/10/03 01:31:47;;;;;;;19.50;10.05;;;17.40;99.90;;;;;;4959626;28;20040;-82
2023/10/03 01:34:15;;;;;;;21.38;11.05;;;17.40;99.90;;;;;;4962433;28;20107;-82
2023/10/03 01:36:41;;;;;;;20.27;11.02;;;17.40;99.90;;;;;;4962269;28;20043;-81
2023/10/03 01:39:07;;;;;;;22.58;11.32;;;17.40;99.90;;;;;;4961155;28;20032;-81
2023/10/03 01:41:34;;;;;;;20.83;10.35;;;17.40;99.90;;;;;;4930042;29;20056;-81
2023/10/03 01:44:01;;;;;;;20.75;11.20;;;17.30;99.90;;;;;;4961753;28;20043;-82
2023/10/03 01:46:26;;;;;;;22.13;11.13;;;17.40;99.90;;;;;;4962538;28;20079;-81
2023/10/03 01:48:52;;;;;;;22.33;11.18;;;17.30;99.90;;;;;;4977777;28;20051;-81
2023/10/03 01:51:19;;;;;;;21.92;10.70;;;17.30;99.90;;;;;;4960934;28;20044;-81
2023/10/03 01:53:45;;;;;;;21.15;11.50;;;17.20;99.90;;;;;;4943487;29;20219;-81
2023/10/03 01:56:12;;;;;;;21.00;10.75;;;17.30;99.90;;;;;;4962643;28;20055;-82
2023/10/03 01:58:38;;;;;;;20.50;10.70;;;17.20;99.90;;;;;;4960701;28;20035;-80
2023/10/03 02:01:04;;;;;;;19.95;10.73;;;17.20;99.90;;;;;;4977770;28;20126;-81
2023/10/03 02:03:32;;;;;;;22.95;11.27;;;17.20;99.90;;;;;;4929308;29;20512;-81
2023/10/03 02:05:58;;;;;;;21.75;10.27;;;17.20;99.90;;;;;;4961846;28;20107;-81
2023/10/03 02:08:25;;;;;;;20.80;10.57;;;17.20;99.90;;;;;;4962232;28;20100;-81
2023/10/03 02:10:52;;;;;;;21.23;10.18;;;17.20;99.90;;;;;;4961789;28;20044;-81
2023/10/03 02:13:19;;;;;;;22.40;11.00;;;17.20;99.90;;;;;;4961349;28;20142;-81
2023/10/03 02:15:47;;;;;;;22.08;10.88;;;17.10;99.90;;;;;;4958121;28;20031;-81
2023/10/03 02:18:14;;;;;;;20.58;10.82;;;17.10;99.90;;;;;;4928764;29;20039;-81
2023/10/03 02:20:47;;;;;;;18.42;9.75;;;17.10;99.90;;;;;;4945355;29;20386;-81
2023/10/03 02:23:20;;;;;;;21.50;10.75;;;17.10;99.90;;;;;;4929718;29;20055;-81
2023/10/03 02:25:50;;;;;;;21.17;10.70;;;17.10;99.90;;;;;;4960811;28;20036;-81
2023/10/03 02:28:17;;;;;;;22.42;11.27;;;17.10;99.90;;;;;;4964076;28;20418;-81
2023/10/03 02:30:50;;;;;;;22.83;11.25;;;17.10;99.90;;;;;;4946273;29;20103;-81
2023/10/03 02:33:17;;;;;;;23.02;11.35;;;17.10;99.90;;;;;;4932542;29;20439;-81
2023/10/03 02:35:47;;;;;;;22.27;10.68;;;17.00;99.90;;;;;;4964970;28;20115;-81
2023/10/03 02:38:37;;;;;;;22.55;10.75;;;17.10;99.90;;;;;;4965720;28;20395;-81
2023/10/03 02:41:00;;;;;;;23.02;10.45;;;17.10;99.90;;;;;;4946015;28;20147;-81
2023/10/03 02:43:27;;;;;;;21.20;10.23;;;17.10;99.90;;;;;;4965291;28;20130;-82
2023/10/03 02:45:53;;;;;;;20.73;10.10;;;17.00;99.90;;;;;;4932524;29;20050;-81
2023/10/03 02:48:21;;;;;;;20.80;10.35;;;17.10;99.90;;;;;;4963539;28;20047;-81
2023/10/03 02:50:49;;;;;;;19.38;10.15;;;17.10;99.90;;;;;;4943456;29;20394;-81
2023/10/03 02:53:19;;;;;;;20.30;9.93;;;17.10;99.90;;;;;;4949092;29;20047;-81
2023/10/03 02:55:49;;;;;;;20.77;10.52;;;17.10;99.90;;;;;;4965072;28;20051;-81
2023/10/03 02:58:16;;;;;;;20.88;10.30;;;17.10;99.90;;;;;;4948846;29;20046;-81
2023/10/03 03:00:43;;;;;;;22.00;10.63;;;17.10;99.90;;;;;;4962735;28;20600;-81
2023/10/03 03:03:10;;;;;;;20.55;10.20;;;17.10;99.90;;;;;;4963525;28;20119;-81
2023/10/03 03:05:37;;;;;;;21.88;10.40;;;17.10;99.90;;;;;;4963373;28;20062;-81
2023/10/03 03:08:21;;;;;;;20.75;9.93;;;17.10;99.90;;;;;;4963267;28;20036;-81
2023/10/03 03:10:58;;;;;;;23.30;10.70;;;17.10;99.90;;;;;;4964484;28;20462;-81
2023/10/03 03:13:28;;;;;;;21.35;9.88;;;17.10;99.90;;;;;;4961121;28;20048;-81
2023/10/03 03:16:01;;;;;;;20.77;9.65;;;17.20;99.90;;;;;;4932126;29;20115;-81
2023/10/03 03:18:32;;;;;;;19.27;10.25;;;17.20;99.90;;;;;;4931182;29;20040;-81
2023/10/03 03:21:02;;;;;;;21.63;10.10;;;17.20;99.90;;;;;;4931048;29;20067;-81
2023/10/03 03:23:36;;;;;;;21.65;10.15;;;17.30;99.90;;;;;;4961224;28;20482;-81
2023/10/03 03:28:49;;;;;;;19.30;9.52;;;17.30;99.90;;;;;;4961801;28;20054;-81
2023/10/03 03:31:22;;;;;;;21.75;10.52;;;17.40;99.90;;;;;;4931977;29;20048;-81
2023/10/03 03:33:57;;;;;;;18.00;9.32;;;17.40;99.90;;;;;;4929735;29;20421;-81
2023/10/03 03:36:29;;;;;;;21.67;10.52;;;17.40;99.90;;;;;;4962631;28;20450;-81
2023/10/03 03:38:58;;;;;;;19.27;10.07;;;17.40;99.90;;;;;;4943307;28;20048;-81
2023/10/03 03:41:24;;;;;;;21.88;10.35;;;17.50;99.90;;;;;;4963875;28;20123;-81
2023/10/03 03:43:50;;;;;;;19.92;9.95;;;17.50;99.90;;;;;;4962126;28;20099;-81
2023/10/03 03:46:18;;;;;;;20.65;10.27;;;17.50;99.90;;;;;;4932639;29;20058;-81
2023/10/03 03:48:44;;;;;;;22.02;9.88;;;17.50;99.90;;;;;;4946205;28;20498;-81
2023/10/03 03:51:11;;;;;;;21.02;10.00;;;17.60;99.90;;;;;;4930065;29;20058;-81
2023/10/03 03:53:38;;;;;;;19.70;9.43;;;17.60;99.90;;;;;;4963863;28;20071;-80
2023/10/03 03:56:05;;;;;;;18.98;9.52;;;17.60;99.90;;;;;;4930348;29;20099;-81
2023/10/03 03:58:31;;;;;;;21.42;10.05;;;17.60;99.90;;;;;;4947824;29;20091;-81
2023/10/03 04:00:58;;;;;;;21.25;10.10;;;17.60;99.90;;;;;;4960019;28;20051;-81
2023/10/03 04:03:25;;;;;;;21.10;9.63;;;17.70;99.90;;;;;;4947335;29;20079;-81
2023/10/03 04:05:51;;;;;;;22.95;10.30;;;17.70;99.90;;;;;;4962481;28;20387;-81
2023/10/03 04:08:18;;;;;;;21.00;9.75;;;17.70;99.90;;;;;;4930051;29;20057;-81
2023/10/03 04:10:44;;;;;;;18.75;9.18;;;17.70;99.90;;;;;;4963186;28;20462;-81
2023/10/03 04:13:10;;;;;;;19.13;9.75;;;17.80;99.90;;;;;;4963999;28;20274;-81
2023/10/03 04:15:39;;;;;;;19.80;9.35;;;17.80;99.90;;;;;;4945835;29;20283;-81
2023/10/03 04:18:06;;;;;;;19.13;9.27;;;17.80;99.90;;;;;;4963821;28;20360;-81
2023/10/03 04:20:35;;;;;;;19.92;9.93;;;17.80;99.90;;;;;;4961328;28;20054;-81
2023/10/03 04:23:06;;;;;;;19.50;9.35;;;17.90;99.90;;;;;;4947289;29;20102;-81
2023/10/03 04:25:33;;;;;;;20.80;9.77;;;17.90;99.90;;;;;;4945672;29;20580;-81
2023/10/03 04:28:00;;;;;;;19.75;9.38;;;17.90;99.90;;;;;;4962148;28;20103;-81
2023/10/03 04:30:27;;;;;;;19.23;9.05;;;17.90;99.90;;;;;;4945336;29;20055;-81
2023/10/03 04:32:55;;;;;;;19.23;9.23;;;17.90;99.90;;;;;;4926597;29;20071;-81
2023/10/03 04:35:23;;;;;;;22.80;8.60;;;18.00;99.90;;;;;;4928600;29;20070;-81
2023/10/03 04:37:52;;;;;;;20.58;9.10;;;18.00;99.90;;;;;;4927323;29;20053;-81
2023/10/03 04:40:23;;;;;;;18.90;9.50;;;18.00;99.90;;;;;;4971601;28;20063;-81
2023/10/03 04:42:52;;;;;;;19.63;9.40;;;18.00;99.90;;;;;;4931043;29;20055;-81
2023/10/03 04:45:19;;;;;;;20.85;9.32;;;18.00;99.90;;;;;;4928030;29;20086;-81
2023/10/03 04:47:48;;;;;;;18.20;8.57;;;18.10;99.90;;;;;;4929159;29;20044;-81
2023/10/03 04:50:18;;;;;;;20.38;9.77;;;18.10;99.90;;;;;;4962222;28;20076;-82
2023/10/03 04:52:48;;;;;;;18.25;8.80;;;18.20;99.90;;;;;;4946043;29;20040;-81
2023/10/03 04:55:17;;;;;;;17.65;8.48;;;18.30;99.90;;;;;;4946427;29;20462;-81
2023/10/03 04:57:45;;;;;;;18.65;8.63;;;18.30;99.90;;;;;;4925120;29;20047;-80
2023/10/03 05:00:18;;;;;;;17.60;8.07;;;18.40;99.90;;;;;;4938818;28;20050;-81
2023/10/03 05:02:51;;;;;;;18.58;8.68;;;18.40;99.90;;;;;;4944646;28;20071;-80
2023/10/03 05:05:22;;;;;;;19.98;8.25;;;18.50;99.90;;;;;;4943929;29;20155;-81
2023/10/03 05:07:49;;;;;;;18.15;8.35;;;18.50;99.90;;;;;;4957575;28;20047;-81
2023/10/03 05:10:17;;;;;;;19.77;8.70;;;18.50;99.90;;;;;;4975005;28;20785;-80
2023/10/03 05:12:45;;;;;;;17.73;8.18;;;18.50;99.90;;;;;;4960120;28;20064;-81
2023/10/03 05:15:11;;;;;;;19.58;8.30;;;18.50;99.90;;;;;;4930970;29;20035;-81
2023/10/03 05:17:38;;;;;;;19.23;8.55;;;18.50;99.90;;;;;;4943123;29;20043;-81
2023/10/03 05:20:05;;;;;;;17.90;8.23;;;18.50;99.90;;;;;;4950913;28;20406;-81
2023/10/03 05:22:32;;;;;;;19.23;8.20;;;18.50;99.90;;;;;;4947369;28;20048;-81
2023/10/03 05:25:01;;;;;;;17.65;8.18;;;18.50;99.90;;;;;;4946776;29;20130;-82
2023/10/03 05:27:28;;;;;;;17.50;8.27;;;18.50;99.90;;;;;;4944797;29;20063;-81
2023/10/03 05:29:58;;;;;;;19.42;9.25;;;18.50;99.90;;;;;;4961244;28;20043;-81
2023/10/03 05:32:26;;;;;;;19.77;8.85;;;18.50;99.90;;;;;;4959814;28;20071;-82
2023/10/03 05:34:52;;;;;;;18.65;7.97;;;18.50;99.90;;;;;;4946000;28;20078;-82
2023/10/03 05:37:18;;;;;;;16.95;7.68;;;18.60;99.90;;;;;;4927463;29;20106;-81
2023/10/03 05:39:44;;;;;;;20.20;8.27;;;18.60;99.90;;;;;;4944975;29;20047;-80
2023/10/03 05:42:10;;;;;;;18.40;7.90;;;18.60;99.90;;;;;;4962747;28;20056;-81
2023/10/03 05:44:37;;;;;;;18.38;7.95;;;18.60;99.90;;;;;;4962752;28;20122;-80
2023/10/03 05:47:03;;;;;;;18.00;8.23;;;18.60;99.90;;;;;;4962639;28;20055;-81
2023/10/03 05:49:29;;;;;;;17.45;8.07;;;18.70;99.90;;;;;;4945727;29;20046;-82
2023/10/03 05:51:58;;;;;;;17.48;8.15;;;18.50;99.90;;;;;;4962761;28;20050;-81
2023/10/03 05:54:27;;;;;;;16.65;8.18;;;18.70;99.90;;;;;;4962904;28;20546;-81
2023/10/03 05:56:54;;;;;;;18.23;8.25;;;18.80;99.90;;;;;;4962709;28;20497;-81
2023/10/03 05:59:20;;;;;;;16.48;7.68;;;18.80;99.90;;;;;;4930738;29;20039;-81
2023/10/03 06:01:47;;;;;;;18.52;8.25;;;18.80;99.90;;;;;;4961054;28;20079;-82
2023/10/03 06:04:13;;;;;;;17.88;7.60;;;18.80;99.90;;;;;;4934095;29;20047;-81
2023/10/03 06:06:39;;;;;;;18.73;8.20;;;18.80;99.90;;;;;;4934316;29;20043;-81
2023/10/03 06:09:05;;;;;;;19.65;8.52;;;18.80;99.90;;;;;;4934486;29;20047;-81
2023/10/03 06:11:31;;;;;;;18.95;7.85;;;18.80;99.90;;;;;;4932909;29;20064;-81
2023/10/03 06:13:57;;;;;;;17.35;7.80;;;18.80;99.90;;;;;;4949816;29;20047;-82
2023/10/03 06:16:24;;;;;;;17.48;8.00;;;18.80;99.90;;;;;;4966698;28;20109;-81
2023/10/03 06:18:51;;;;;;;15.20;7.43;;;18.80;99.90;;;;;;4949324;29;20047;-81
2023/10/03 06:21:16;;;;;;;17.48;7.80;;;18.80;99.90;;;;;;4980226;28;20040;-82
2023/10/03 06:23:46;;;;;;;16.67;7.65;;;18.80;99.90;;;;;;4929067;29;20524;-80
2023/10/03 06:26:17;;;;;;;17.45;8.20;;;18.80;99.90;;;;;;4945348;28;20122;-82
2023/10/03 06:28:51;;;;;;;19.25;8.65;;;18.90;99.90;;;;;;4961310;28;20093;-81
2023/10/03 06:31:17;;;;;;;21.15;8.35;;;18.80;99.90;;;;;;4948015;28;20047;-81
2023/10/03 06:33:43;;;;;;;20.02;8.13;;;18.80;99.90;;;;;;4949863;29;20043;-82
2023/10/03 06:36:09;;;;;;;19.02;7.28;;;18.80;99.90;;;;;;4945553;29;20043;-81
2023/10/03 06:38:36;;;;;;;13.77;7.15;;;18.80;99.90;;;;;;4965548;28;20035;-81
2023/10/03 06:41:07;;;;;;;19.67;7.85;;;18.80;99.90;;;;;;4931701;29;20063;-81
2023/10/03 06:43:33;;;;;;;17.55;7.20;;;18.80;99.90;;;;;;4965843;28;20063;-82
2023/10/03 06:45:59;;;;;;;16.75;7.13;;;18.80;99.90;;;;;;4964686;28;20086;-81
2023/10/03 06:48:26;;;;;;;15.32;6.88;;;18.70;99.90;;;;;;4960171;28;20402;-81
2023/10/03 06:50:53;;;;;;;16.10;6.70;;;18.70;99.90;;;;;;4975110;28;20047;-82
2023/10/03 06:53:19;;;;;;;15.98;6.60;;;18.70;99.90;;;;;;4965659;28;20046;-81
2023/10/03 06:55:49;;;;;;;14.10;6.03;;;18.70;99.90;;;;;;4946777;28;20119;-81
2023/10/03 06:58:15;;;;;;;15.65;6.18;;;18.60;99.90;;;;;;4962806;28;20520;-82
2023/10/03 07:00:41;;;;;;;13.98;5.85;;;18.60;99.90;;;;;;4943427;28;20048;-81
2023/10/03 07:03:08;;;;;;;15.20;5.88;;;18.60;99.90;;;;;;4932123;29;20047;-81
2023/10/03 07:05:34;;;;;;;13.32;5.20;;;18.60;99.90;;;;;;4980739;28;20441;-81
2023/10/03 07:08:00;;;;;;;14.25;5.57;;;18.60;99.90;;;;;;4962255;28;20051;-82
2023/10/03 07:10:26;;;;;;;12.05;5.18;;;18.50;99.90;;;;;;4963345;28;20051;-81
2023/10/03 07:12:52;;;;;;;14.65;5.05;;;18.50;99.90;;;;;;4930893;29;20398;-81
2023/10/03 07:15:18;;;;;;;12.88;4.93;;;18.40;99.90;;;;;;4930087;29;20075;-82
2023/10/03 07:17:44;;;;;;;11.23;4.65;;;18.40;99.90;;;;;;4931992;29;20043;-82
2023/10/03 07:20:12;;;;;;;11.75;4.50;;;18.30;99.90;;;;;;4947392;29;20048;-81
2023/10/03 07:22:39;;;;;;;10.00;3.83;;;18.30;99.90;;;;;;4931660;29;20052;-82
2023/10/03 07:25:08;;;;;;;12.27;4.35;;;18.20;99.90;;;;;;4931617;29;20052;-81
2023/10/03 07:27:34;;;;;;;11.38;3.90;;;18.20;99.90;;;;;;4948015;29;20045;-80
2023/10/03 07:30:02;;;;;;;12.98;4.18;;;18.10;99.90;;;;;;4964281;28;20074;-81
2023/10/03 07:32:31;;;;;;;10.10;3.55;;;18.00;99.90;;;;;;4947951;29;20047;-81
2023/10/03 07:34:57;;;;;;;11.60;4.03;;;18.00;99.90;;;;;;4945090;29;20035;-82
2023/10/03 07:37:23;;;;;;;11.07;4.00;;;18.00;99.90;;;;;;4929734;29;20069;-83
2023/10/03 07:39:49;;;;;;;10.48;3.65;;;17.90;99.90;;;;;;4961834;28;20498;-83
2023/10/03 07:42:17;;;;;;;13.13;4.07;;;17.90;99.90;;;;;;4964675;28;20051;-83
2023/10/03 07:44:43;;;;;;;12.32;4.35;;;17.90;99.90;;;;;;4946690;29;20047;-83
2023/10/03 07:47:10;;;;;;;13.38;4.72;;;17.90;99.90;;;;;;4948242;28;20461;-83
2023/10/03 07:49:37;;;;;;;13.02;4.70;;;17.90;99.90;;;;;;4947717;29;20062;-83
2023/10/03 07:52:04;;;;;;;14.32;5.40;;;17.80;99.90;;;;;;4930915;29;20044;-83
2023/10/03 07:54:36;;;;;;;13.02;5.10;;;17.90;99.90;;;;;;4914555;29;20031;-83
2023/10/03 07:57:04;;;;;;;14.23;4.43;;;17.90;99.90;;;;;;4943124;29;20376;-82
2023/10/03 07:59:30;;;;;;;10.93;4.15;;;17.80;99.90;;;;;;4945743;29;20047;-82
2023/10/03 08:01:57;;;;;;;13.88;4.15;;;17.80;99.90;;;;;;4930980;29;20043;-83
2023/10/03 08:04:23;;;;;;;10.57;3.70;;;17.80;99.90;;;;;;4915598;29;20043;-83
2023/10/03 08:06:49;;;;;;;12.98;4.45;;;17.70;99.90;;;;;;4964520;28;20074;-83
2023/10/03 08:09:15;;;;;;;11.45;3.70;;;17.70;99.90;;;;;;4948151;28;20044;-82
2023/10/03 08:11:46;;;;;;;12.40;3.83;;;17.70;99.90;;;;;;4963070;28;20046;-82
2023/10/03 08:14:13;;;;;;;11.75;3.55;;;17.60;99.90;;;;;;4964222;28;20115;-82
2023/10/03 08:16:46;;;;;;;10.43;3.10;;;17.50;99.90;;;;;;4932103;29;20075;-82
2023/10/03 08:19:25;;;;;;;7.03;2.22;;;17.40;99.90;;;;;;4943738;29;20066;-81
2023/10/03 08:21:55;;;;;;;8.73;2.83;;;17.40;99.90;;;;;;4931099;29;20070;-81
2023/10/03 08:24:28;;;;;;;10.07;2.63;;;17.30;99.90;;;;;;4961797;28;20632;-80
2023/10/03 08:26:58;;;;;;;7.78;2.55;;;17.20;99.90;;;;;;4963428;28;20078;-81
2023/10/03 08:29:25;;;;;;;7.35;2.40;;;17.20;99.90;;;;;;4947646;29;20510;-82
2023/10/03 08:31:58;;;;;;;8.88;2.55;;;17.10;99.90;;;;;;4963971;28;20123;-80
2023/10/03 08:34:25;;;;;;;7.80;2.08;;;17.10;99.90;;;;;;4961230;28;20046;-82
2023/10/03 08:36:54;;;;;;;8.25;1.95;;;17.00;99.90;;;;;;4962258;28;20119;-81
2023/10/03 08:39:23;;;;;;;6.28;2.03;;;16.90;99.90;;;;;;4931666;29;20186;-81
2023/10/03 08:42:12;;;;;;;7.47;2.25;;;16.80;99.90;;;;;;4931361;29;20098;-81
2023/10/03 08:44:51;;;;;;;6.45;1.80;;;16.80;99.90;;;;;;4972367;28;20540;-80
2023/10/03 08:47:31;;;;;;;7.03;1.90;;;16.70;99.90;;;;;;4941952;29;20047;-81
2023/10/03 08:50:10;;;;;;;8.05;1.88;;;16.70;99.90;;;;;;4946685;28;20048;-81
2023/10/03 08:52:47;;;;;;;6.22;1.67;;;16.80;99.90;;;;;;4962455;28;20070;-80
2023/10/03 08:55:19;;;;;;;6.82;1.65;;;16.80;99.90;;;;;;4946485;28;20405;-81
2023/10/03 08:57:49;;;;;;;6.35;1.75;;;16.80;99.90;;;;;;4944730;28;20102;-82
2023/10/03 09:00:25;;;;;;;4.97;1.50;;;16.90;99.90;;;;;;4937970;28;20040;-81
2023/10/03 09:03:09;;;;;;;4.65;1.10;;;16.80;99.90;;;;;;4963840;28;20071;-81
2023/10/03 09:05:39;;;;;;;7.20;1.48;;;16.80;99.90;;;;;;4962060;28;20050;-81
2023/10/03 09:08:10;;;;;;;4.80;1.20;;;16.80;99.90;;;;;;4944059;29;20040;-81
2023/10/03 09:10:53;;;;;;;6.88;1.75;;;16.70;99.90;;;;;;4913989;29;20115;-81
2023/10/03 09:13:23;;;;;;;7.60;1.38;;;16.60;99.90;;;;;;4953919;28;20036;-80
2023/10/03 09:16:00;;;;;;;5.35;1.42;;;16.30;99.90;;;;;;4963265;28;20591;-81
2023/10/03 09:18:30;;;;;;;3.83;1.08;;;16.20;99.90;;;;;;4928355;29;20135;-80
2023/10/03 09:20:59;;;;;;;5.05;1.15;;;16.10;99.90;;;;;;4940548;29;20051;-80
2023/10/03 09:23:38;;;;;;;5.55;1.30;;;16.00;99.90;;;;;;4955312;28;20039;-81
2023/10/03 09:26:06;;;;;;;3.20;1.20;;;16.00;99.90;;;;;;4945516;28;20043;-81
2023/10/03 09:28:35;;;;;;;5.45;1.30;;;16.00;99.90;;;;;;4928333;29;20478;-81
2023/10/03 09:31:10;;;;;;;5.90;1.20;;;15.90;99.90;;;;;;4962431;28;20044;-81
2023/10/03 09:33:39;;;;;;;4.28;1.50;;;15.90;99.90;;;;;;4963327;28;20094;-81
2023/10/03 09:36:06;;;;;;;5.22;1.13;;;15.90;99.90;;;;;;4956804;28;21410;-81
2023/10/03 09:38:46;;;;;;;6.32;1.33;;;15.90;99.90;;;;;;4962845;28;20047;-81
2023/10/03 09:41:17;;;;;;;4.03;1.25;;;15.80;99.90;;;;;;4966817;28;20118;-81
2023/10/03 09:43:53;;;;;;;2.83;1.13;;;15.80;99.90;;;;;;4934724;29;20055;-81
2023/10/03 09:46:24;;;;;;;4.28;1.30;;;15.80;99.90;;;;;;4933063;29;20457;-81
2023/10/03 09:48:54;;;;;;;4.53;1.15;;;15.70;99.90;;;;;;4947993;28;20036;-81
2023/10/03 09:51:36;;;;;;;5.75;1.50;;;15.70;99.90;;;;;;4964279;28;20047;-81
2023/10/03 09:54:12;;;;;;;4.70;1.33;;;15.60;99.90;;;;;;4934718;29;20040;-81
2023/10/03 09:56:50;;;;;;;6.18;1.50;;;15.50;99.90;;;;;;4932113;29;20043;-82
2023/10/03 09:59:18;;;;;;;4.85;1.23;;;15.50;99.90;;;;;;4947790;29;20438;-81
2023/10/03 10:01:45;;;;;;;3.95;1.48;;;15.50;99.90;;;;;;4963273;28;20396;-81
2023/10/03 10:04:14;;;;;;;4.68;1.20;;;15.40;99.90;;;;;;4947624;29;20156;-81
2023/10/03 10:07:16;;;;;;;2.78;0.90;;;15.30;99.90;;;;;;4966742;28;20413;-82
2023/10/03 10:10:07;;;;;;;3.30;1.10;;;15.30;99.90;;;;;;4930290;29;20181;-82
2023/10/03 10:12:37;;;;;;;3.67;1.00;;;15.30;99.90;;;;;;4964522;28;20280;-82
2023/10/03 10:17:56;;;;;;;4.00;1.10;;;15.40;99.90;;;;;;4966369;28;20055;-82
2023/10/03 10:20:38;;;;;;;1.92;1.08;;;15.30;99.90;;;;;;4945001;28;20497;-80
2023/10/03 10:23:22;;;;;;;3.83;0.93;;;15.30;99.90;;;;;;4963538;28;20044;-82
2023/10/03 10:25:57;;;;;;;1.98;0.77;;;15.10;99.90;;;;;;4980587;28;20032;-82
2023/10/03 10:28:26;;;;;;;3.08;0.88;;;15.00;99.90;;;;;;4948556;29;20584;-82
2023/10/03 10:31:11;;;;;;;2.60;0.90;;;15.00;99.90;;;;;;4932644;29;20047;-83
2023/10/03 10:33:37;;;;;;;3.30;1.10;;;15.00;99.90;;;;;;4963517;28;20138;-82
2023/10/03 10:36:03;;;;;;;3.67;0.98;;;15.00;99.90;;;;;;4922469;29;20050;-81
2023/10/03 10:38:32;;;;;;;2.80;1.10;;;15.00;99.90;;;;;;4965992;28;20576;-82
2023/10/03 10:41:26;;;;;;;4.00;1.13;;;15.00;99.90;;;;;;4949643;29;20481;-82
2023/10/03 10:44:08;;;;;;;5.22;1.30;;;15.10;99.90;;;;;;4964452;28;20414;-81
2023/10/03 10:46:42;;;;;;;5.57;1.33;;;15.10;99.90;;;;;;4949596;29;20175;-82
2023/10/03 10:49:33;;;;;;;5.80;1.48;;;15.10;99.90;;;;;;4933877;29;20070;-81
2023/10/03 10:52:06;;;;;;;7.03;1.55;;;15.20;99.90;;;;;;4948607;29;20711;-82
2023/10/03 10:54:42;;;;;;;;;;;15.20;99.90;;;;;;4966562;28;20524;-81
2023/10/03 10:57:16;;;;;;;4.70;1.42;;;15.20;99.90;;;;;;4932589;29;20169;-82
2023/10/03 10:59:43;;;;;;;5.78;1.58;;;15.30;99.90;;;;;;4933282;29;20114;-82
2023/10/03 11:02:24;;;;;;;5.53;1.60;;;15.40;99.90;;;;;;4949191;28;20039;-80
2023/10/03 11:05:01;;;;;;;5.80;1.80;;;15.40;99.90;;;;;;4929746;29;20086;-81
2023/10/03 11:07:28;;;;;;;8.55;2.13;;;15.40;99.90;;;;;;4930005;29;20065;-81
2023/10/03 11:10:04;;;;;;;7.68;2.05;;;15.50;99.90;;;;;;4931502;29;20039;-81
2023/10/03 11:12:29;;;;;;;7.00;1.92;;;15.50;99.90;;;;;;4963773;28;20071;-81
2023/10/03 11:14:56;;;;;;;7.18;2.15;;;15.50;99.90;;;;;;4948226;29;20082;-81
2023/10/03 11:17:23;;;;;;;6.80;2.10;;;15.40;99.90;;;;;;4928439;29;20378;-82
2023/10/03 11:19:55;;;;;;;9.32;2.10;;;15.40;99.90;;;;;;4928413;29;20036;-82
2023/10/03 11:22:22;;;;;;;7.10;2.10;;;15.40;99.90;;;;;;4930616;29;20039;-82
2023/10/03 11:24:48;;;;;;;9.93;2.80;;;15.30;99.90;;;;;;4965274;28;20040;-81
2023/10/03 11:27:40;;;;;;;9.13;2.55;;;15.30;99.90;;;;;;4933335;29;20524;-82
2023/10/03 11:30:16;;;;;;;6.18;2.08;;;15.30;99.90;;;;;;4929958;29;20056;-82
2023/10/03 11:32:43;;;;;;;9.23;2.60;;;15.40;99.90;;;;;;4965472;28;20040;-81
2023/10/03 11:35:21;;;;;;;8.45;2.35;;;15.40;99.90;;;;;;4963615;28;20127;-81
2023/10/03 11:37:49;;;;;;;8.77;2.58;;;15.40;99.90;;;;;;4931823;29;20406;-81
2023/10/03 11:40:20;;;;;;;7.47;2.22;;;15.40;99.90;;;;;;4964268;28;20058;-81
2023/10/03 11:42:55;;;;;;;8.02;2.20;;;15.40;99.90;;;;;;4979135;28;20130;-80
2023/10/03 11:45:28;;;;;;;7.22;2.20;;;15.50;99.90;;;;;;4948406;29;20262;-81
2023/10/03 11:48:10;;;;;;;7.82;2.22;;;15.50;99.90;;;;;;4963831;28;20055;-81
2023/10/03 11:50:38;;;;;;;5.93;1.90;;;15.60;99.90;;;;;;4958834;28;20107;-81
2023/10/03 11:53:05;;;;;;;7.57;2.25;;;15.60;99.90;;;;;;4963362;28;20075;-82
2023/10/03 11:55:33;;;;;;;8.32;2.22;;;15.60;99.90;;;;;;4964750;28;20457;-81
2023/10/03 11:58:02;;;;;;;8.30;2.13;;;15.60;99.90;;;;;;4948711;29;20110;-81
2023/10/03 12:00:28;;;;;;;7.65;2.10;;;15.60;99.90;;;;;;4973940;28;20043;-80
2023/10/03 12:02:55;;;;;;;5.82;1.95;;;15.60;99.90;;;;;;4974791;28;20044;-81
2023/10/03 12:05:22;;;;;;;6.82;1.88;;;15.60;99.90;;;;;;4960555;28;20502;-81
2023/10/03 12:07:50;;;;;;;8.52;2.30;;;15.60;99.90;;;;;;4932672;29;20055;-80
2023/10/03 12:10:20;;;;;;;8.70;2.10;;;15.70;99.90;;;;;;4946507;29;20063;-81
2023/10/03 12:12:46;;;;;;;9.00;2.30;;;15.70;99.90;;;;;;4979575;28;20079;-81
2023/10/03 12:15:13;;;;;;;7.90;2.03;;;15.70;99.90;;;;;;4963898;28;20134;-81
2023/10/03 12:17:46;;;;;;;7.75;2.25;;;15.70;99.90;;;;;;4932474;29;20516;-81
2023/10/03 12:20:13;;;;;;;8.95;2.17;;;15.60;99.90;;;;;;4930114;29;20539;-83
2023/10/03 12:22:44;;;;;;;7.32;2.08;;;15.50;99.90;;;;;;4945168;29;20048;-84
2023/10/03 12:25:12;;;;;;;7.15;2.10;;;15.40;99.90;;;;;;4964053;28;20075;-85
2023/10/03 12:27:38;;;;;;;7.97;1.98;;;15.20;99.90;;;;;;4947948;28;20087;-85
2023/10/03 12:30:08;;;;;;;7.50;2.00;;;15.00;99.90;;;;;;4931623;29;20043;-85
2023/10/03 12:32:35;;;;;;;8.45;2.22;;;14.90;99.90;;;;;;4931937;29;20043;-86
2023/10/03 12:35:03;;;;;;;8.00;1.98;;;14.80;99.90;;;;;;4930901;29;20043;-85
2023/10/03 12:37:30;;;;;;;8.40;2.40;;;14.70;99.90;;;;;;4962681;28;20426;-86
2023/10/03 12:40:04;;;;;;;6.38;2.00;;;14.70;99.90;;;;;;4931376;29;20051;-85
2023/10/03 12:42:33;;;;;;;8.40;2.38;;;14.80;99.90;;;;;;4931446;29;20056;-85
2023/10/03 12:45:01;;;;;;;8.90;2.40;;;14.90;99.90;;;;;;4928885;29;20047;-84
2023/10/03 12:47:31;;;;;;;7.03;2.30;;;14.90;99.90;;;;;;4961878;28;20277;-84
2023/10/03 12:49:59;;;;;;;8.25;1.90;;;15.00;99.90;;;;;;4963547;28;20530;-84
2023/10/03 12:52:25;;;;;;;8.70;2.30;;;15.20;99.90;;;;;;4930441;29;20411;-84
2023/10/03 12:54:51;;;;;;;7.75;2.15;;;15.30;99.90;;;;;;4960587;28;20040;-84